createdAt,value
2019-04-23T00:01:49.315Z,16.12
2019-04-23T00:04:23.969Z,16.14
2019-04-23T00:07:13.302Z,16.07
2019-04-23T00:09:32.977Z,16.08
2019-04-23T00:12:11.770Z,16.06
2019-04-23T00:14:47.579Z,16.10
2019-04-23T00:17:24.690Z,16.10
2019-04-23T00:19:55.822Z,16.18
2019-04-23T00:22:43.801Z,16.10
2019-04-23T00:28:16.114Z,15.96
2019-04-23T00:30:50.245Z,15.96
2019-04-23T00:33:23.920Z,15.98
2019-04-23T00:35:50.388Z,15.96
2019-04-23T00:38:26.815Z,15.93
2019-04-23T00:41:01.203Z,15.92
2019-04-23T00:43:34.208Z,15.83
2019-04-23T00:46:11.385Z,15.74
2019-04-23T00:48:53.117Z,15.77
2019-04-23T00:51:16.746Z,15.66
2019-04-23T00:54:09.143Z,15.62
2019-04-23T01:01:38.890Z,15.50
2019-04-23T01:04:15.071Z,15.47
2019-04-23T01:06:41.453Z,15.38
2019-04-23T01:09:14.147Z,15.42
2019-04-23T01:14:22.984Z,15.48
2019-04-23T01:16:55.019Z,15.55
2019-04-23T01:19:49.848Z,15.56
2019-04-23T01:22:02.343Z,15.54
2019-04-23T01:24:48.185Z,15.56
2019-04-23T01:27:51.135Z,15.49
2019-04-23T01:30:19.669Z,15.52
2019-04-23T01:32:54.743Z,15.46
2019-04-23T01:35:29.101Z,15.48
2019-04-23T01:37:58.416Z,15.41
2019-04-23T01:40:36.548Z,15.43
2019-04-23T01:43:10.709Z,15.48
2019-04-23T01:45:34.201Z,15.43
2019-04-23T01:48:21.894Z,15.13
2019-04-23T01:50:55.057Z,15.15
2019-04-23T01:53:37.386Z,15.11
2019-04-23T01:56:03.038Z,15.04
2019-04-23T02:01:09.859Z,15.12
2019-04-23T02:03:43.637Z,15.06
2019-04-23T02:08:56.830Z,15.05
2019-04-23T02:11:17.520Z,15.05
2019-04-23T02:19:11.542Z,14.79
2019-04-23T02:21:47.259Z,14.95
2019-04-23T02:24:22.880Z,14.90
2019-04-23T02:26:48.569Z,14.90
2019-04-23T02:29:36.551Z,14.96
2019-04-23T02:32:19.102Z,15.00
2019-04-23T02:40:11.341Z,14.85
2019-04-23T02:42:50.012Z,14.75
2019-04-23T02:44:56.157Z,14.72
2019-04-23T02:47:32.621Z,14.64
2019-04-23T02:52:43.072Z,14.60
2019-04-23T02:57:41.516Z,14.67
2019-04-23T03:00:28.785Z,14.66
2019-04-23T03:05:32.091Z,14.69
2019-04-23T03:13:19.356Z,14.80
2019-04-23T03:16:08.466Z,14.74
2019-04-23T03:21:44.517Z,14.62
2019-04-23T03:24:34.645Z,14.77
2019-04-23T03:27:09.148Z,14.83
2019-04-23T03:37:23.270Z,14.61
2019-04-23T03:39:56.537Z,14.51
2019-04-23T03:42:23.918Z,14.54
2019-04-23T03:47:33.167Z,14.42
2019-04-23T03:52:51.049Z,14.46
2019-04-23T03:57:41.021Z,14.34
2019-04-23T04:00:35.198Z,14.33
2019-04-23T04:06:43.681Z,14.29
2019-04-23T04:08:13.731Z,14.27
2019-04-23T04:10:48.283Z,14.26
2019-04-23T04:13:15.873Z,14.21
2019-04-23T04:15:55.726Z,14.04
2019-04-23T04:18:32.654Z,14.06
2019-04-23T04:28:38.914Z,14.00
2019-04-23T04:31:10.023Z,13.92
2019-04-23T04:36:21.756Z,13.96
2019-04-23T04:38:54.298Z,13.82
2019-04-23T04:41:25.130Z,13.81
2019-04-23T04:49:10.458Z,13.80
2019-04-23T04:51:51.887Z,13.71
2019-04-23T04:56:46.926Z,13.74
2019-04-23T04:59:39.833Z,13.86
2019-04-23T05:02:01.138Z,13.86
2019-04-23T05:07:11.435Z,13.94
2019-04-23T05:14:52.536Z,13.81
2019-04-23T05:17:42.455Z,13.85
2019-04-23T05:20:14.672Z,13.86
2019-04-23T05:22:48.824Z,13.86
2019-04-23T05:25:12.610Z,13.93
2019-04-23T05:28:07.716Z,14.01
2019-04-23T05:33:04.349Z,14.18
2019-04-23T05:35:56.122Z,14.14
2019-04-23T05:40:45.283Z,14.26
2019-04-23T05:43:15.848Z,14.39
2019-04-23T05:45:48.109Z,14.52
2019-04-23T05:51:04.309Z,14.71
2019-04-23T05:53:33.844Z,14.74
2019-04-23T05:56:02.199Z,14.74
2019-04-23T05:58:38.411Z,14.83
2019-04-23T06:01:49.239Z,14.80
2019-04-23T06:11:57.109Z,15.13
2019-04-23T06:17:03.952Z,15.39
2019-04-23T06:19:44.329Z,15.52
2019-04-23T06:22:15.199Z,15.64
2019-04-23T06:24:49.070Z,15.73
2019-04-23T06:27:13.515Z,15.85
2019-04-23T06:29:43.294Z,16.05
2019-04-23T06:32:20.658Z,16.10
2019-04-23T06:34:51.192Z,16.12
2019-04-23T06:37:38.304Z,16.12
2019-04-23T06:40:03.165Z,16.20
2019-04-23T06:42:52.134Z,16.47
2019-04-23T06:45:25.682Z,16.66
2019-04-23T06:48:02.270Z,16.82
2019-04-23T06:50:34.657Z,16.94
2019-04-23T06:53:02.463Z,17.07
2019-04-23T06:55:44.543Z,17.08
2019-04-23T06:58:19.407Z,16.94
2019-04-23T07:00:48.030Z,17.34
2019-04-23T07:06:19.234Z,17.22
2019-04-23T07:08:56.260Z,17.26
2019-04-23T07:11:23.479Z,17.51
2019-04-23T07:13:55.008Z,17.62
2019-04-23T07:16:34.676Z,17.79
2019-04-23T07:19:04.400Z,17.78
2019-04-23T07:26:41.833Z,17.80
2019-04-23T07:29:08.967Z,17.89
2019-04-23T07:31:48.412Z,17.84
2019-04-23T07:34:13.684Z,17.98
2019-04-23T07:36:53.736Z,18.41
2019-04-23T07:39:57.024Z,18.51
2019-04-23T07:45:19.359Z,18.48
2019-04-23T07:50:44.193Z,18.63
2019-04-23T07:53:33.161Z,18.36
2019-04-23T07:56:00.910Z,18.34
2019-04-23T07:58:23.796Z,18.23
2019-04-23T08:00:56.979Z,18.42
2019-04-23T08:03:30.687Z,18.43
2019-04-23T08:06:00.674Z,18.30
2019-04-23T08:08:47.431Z,18.53
2019-04-23T08:21:43.840Z,18.98
2019-04-23T08:24:45.408Z,18.92
2019-04-23T08:27:34.742Z,18.85
2019-04-23T08:30:09.508Z,18.89
2019-04-23T08:32:52.360Z,19.20
2019-04-23T08:35:23.151Z,19.33
2019-04-23T08:40:35.322Z,19.41
2019-04-23T08:43:31.483Z,19.25
2019-04-23T08:46:17.240Z,19.49
2019-04-23T08:48:50.296Z,19.50
2019-04-23T08:51:38.996Z,19.65
2019-04-23T08:54:01.454Z,19.83
2019-04-23T08:56:33.391Z,20.07
2019-04-23T08:59:09.087Z,20.32
2019-04-23T09:01:49.189Z,20.24
2019-04-23T09:04:09.343Z,20.21
2019-04-23T09:06:47.896Z,20.36
2019-04-23T09:09:20.076Z,20.66
2019-04-23T09:11:54.493Z,20.98
2019-04-23T09:14:28.273Z,21.36
2019-04-23T09:17:06.128Z,21.36
2019-04-23T09:19:46.029Z,21.25
2019-04-23T09:22:14.547Z,21.25
2019-04-23T09:27:24.523Z,21.52
2019-04-23T09:30:07.016Z,21.77
2019-04-23T09:32:52.062Z,21.84
2019-04-23T09:35:33.595Z,22.17
2019-04-23T09:38:31.630Z,21.97
2019-04-23T09:44:25.925Z,22.45
2019-04-23T09:46:47.823Z,22.58
2019-04-23T09:49:20.663Z,22.52
2019-04-23T09:52:02.450Z,22.31
2019-04-23T09:56:57.040Z,21.96
2019-04-23T10:02:04.324Z,22.47
2019-04-23T10:04:27.342Z,22.52
2019-04-23T10:07:01.557Z,22.31
2019-04-23T10:09:25.817Z,22.36
2019-04-23T10:11:56.961Z,22.55
2019-04-23T10:14:30.335Z,22.57
2019-04-23T10:17:03.980Z,22.58
2019-04-23T10:19:36.952Z,22.45
2019-04-23T10:22:09.224Z,22.82
2019-04-23T10:24:41.194Z,23.02
2019-04-23T10:27:14.757Z,23.21
2019-04-23T10:29:47.852Z,23.33
2019-04-23T10:32:19.994Z,23.15
2019-04-23T10:35:04.589Z,23.56
2019-04-23T10:37:39.335Z,23.82
2019-04-23T10:40:03.522Z,23.71
2019-04-23T10:42:37.532Z,23.63
2019-04-23T10:45:47.782Z,23.87
2019-04-23T10:49:23.118Z,23.72
2019-04-23T10:51:41.259Z,23.46
2019-04-23T10:54:26.317Z,23.21
2019-04-23T11:02:29.677Z,23.75
2019-04-23T11:04:54.328Z,23.65
2019-04-23T11:10:05.568Z,23.75
2019-04-23T11:13:07.817Z,23.71
2019-04-23T11:18:02.777Z,24.07
2019-04-23T11:20:54.031Z,24.35
2019-04-23T11:23:22.465Z,24.17
2019-04-23T11:26:01.333Z,24.31
2019-04-23T11:31:12.045Z,24.49
2019-04-23T11:33:49.680Z,24.33
2019-04-23T11:36:41.117Z,24.04
2019-04-23T11:38:54.776Z,24.23
2019-04-23T11:43:55.355Z,24.28
2019-04-23T11:46:47.519Z,24.39
2019-04-23T11:52:05.609Z,24.60
2019-04-23T11:54:21.394Z,24.76
2019-04-23T11:59:31.689Z,24.94
2019-04-23T12:02:19.369Z,25.16
2019-04-23T12:05:01.019Z,25.27
2019-04-23T12:07:34.401Z,25.06
2019-04-23T12:13:03.191Z,24.97
2019-04-23T12:18:10.900Z,24.92
2019-04-23T12:20:56.795Z,25.04
2019-04-23T12:23:31.995Z,25.06
2019-04-23T12:25:52.844Z,24.98
2019-04-23T12:28:34.967Z,25.08
2019-04-23T12:30:59.310Z,25.12
2019-04-23T12:33:45.267Z,25.09
2019-04-23T12:39:18.509Z,25.00
2019-04-23T12:42:01.740Z,25.03
2019-04-23T12:44:30.619Z,25.12
2019-04-23T12:47:02.597Z,24.98
2019-04-23T12:49:59.108Z,25.10
2019-04-23T12:52:12.695Z,24.60
2019-04-23T12:54:59.130Z,24.61
2019-04-23T12:57:21.356Z,24.54
2019-04-23T12:59:51.595Z,24.61
2019-04-23T13:02:35.055Z,24.53
2019-04-23T13:05:05.062Z,24.71
2019-04-23T13:10:20.954Z,24.71
2019-04-23T13:13:04.606Z,24.83
2019-04-23T13:15:17.370Z,24.66
2019-04-23T13:20:23.187Z,24.69
2019-04-23T13:23:03.153Z,24.90
2019-04-23T13:25:57.078Z,24.85
2019-04-23T13:38:47.282Z,24.56
2019-04-23T13:44:06.066Z,24.62
2019-04-23T13:46:23.073Z,24.58
2019-04-23T13:48:55.095Z,24.46
2019-04-23T13:51:32.700Z,24.46
2019-04-23T13:57:13.976Z,24.24
2019-04-23T13:59:21.898Z,24.34
2019-04-23T14:01:46.756Z,24.07
2019-04-23T14:04:44.650Z,24.17
2019-04-23T14:07:14.903Z,24.34
2019-04-23T14:10:00.575Z,24.47
2019-04-23T14:12:23.990Z,24.58
2019-04-23T14:15:04.475Z,24.61
2019-04-23T14:17:40.880Z,24.57
2019-04-23T14:20:07.216Z,24.43
2019-04-23T14:25:12.349Z,24.61
2019-04-23T14:27:49.440Z,24.58
2019-04-23T14:30:31.402Z,24.46
2019-04-23T14:32:54.116Z,24.42
2019-04-23T14:38:17.774Z,24.38
2019-04-23T14:43:24.827Z,24.33
2019-04-23T14:46:25.019Z,24.14
2019-04-23T14:48:21.363Z,24.41
2019-04-23T14:51:11.274Z,24.35
2019-04-23T14:53:30.338Z,24.41
2019-04-23T14:56:13.111Z,24.32
2019-04-23T15:01:27.393Z,24.34
2019-04-23T15:03:46.701Z,24.47
2019-04-23T15:09:04.230Z,24.79
2019-04-23T15:14:03.533Z,24.30
2019-04-23T15:16:48.355Z,24.39
2019-04-23T15:22:04.832Z,24.52
2019-04-23T15:24:27.541Z,24.61
2019-04-23T15:28:00.775Z,24.50
2019-04-23T15:29:26.720Z,24.76
2019-04-23T15:32:13.787Z,24.66
2019-04-23T15:34:45.495Z,24.68
2019-04-23T15:37:33.579Z,24.72
2019-04-23T15:39:56.142Z,24.68
2019-04-23T15:42:26.051Z,24.48
2019-04-23T15:45:01.360Z,24.48
2019-04-23T15:47:36.095Z,24.43
2019-04-23T15:50:17.624Z,24.49
2019-04-23T15:52:49.766Z,24.57
2019-04-23T15:55:14.192Z,24.50
2019-04-23T16:00:22.433Z,24.52
2019-04-23T16:02:27.655Z,24.50
2019-04-23T16:05:00.114Z,24.47
2019-04-23T16:07:51.855Z,24.36
2019-04-23T16:10:44.868Z,24.27
2019-04-23T16:13:14.953Z,24.36
2019-04-23T16:15:45.382Z,24.15
2019-04-23T16:18:41.188Z,24.21
2019-04-23T16:21:05.035Z,24.11
2019-04-23T16:23:35.617Z,24.27
2019-04-23T16:26:14.258Z,24.28
2019-04-23T16:31:34.666Z,24.01
2019-04-23T16:34:19.470Z,23.87
2019-04-23T16:36:54.690Z,23.83
2019-04-23T16:39:22.216Z,23.87
2019-04-23T16:42:03.964Z,23.87
2019-04-23T16:44:38.300Z,23.93
2019-04-23T16:47:14.495Z,23.82
2019-04-23T16:49:44.593Z,23.65
2019-04-23T16:52:19.285Z,23.64
2019-04-23T16:57:33.230Z,23.61
2019-04-23T17:05:12.503Z,23.45
2019-04-23T17:07:39.992Z,23.44
2019-04-23T17:10:23.482Z,23.32
2019-04-23T17:12:52.931Z,23.35
2019-04-23T17:15:29.088Z,23.46
2019-04-23T17:17:56.135Z,23.37
2019-04-23T17:20:30.506Z,23.27
2019-04-23T17:23:10.199Z,23.02
2019-04-23T17:25:41.874Z,23.16
2019-04-23T17:28:20.195Z,23.07
2019-04-23T17:30:52.353Z,23.08
2019-04-23T17:33:32.773Z,23.12
2019-04-23T17:39:02.683Z,23.19
2019-04-23T17:41:38.938Z,22.94
2019-04-23T17:44:18.649Z,22.86
2019-04-23T17:49:15.206Z,22.70
2019-04-23T17:51:49.440Z,22.78
2019-04-23T17:54:26.955Z,22.81
2019-04-23T17:57:10.584Z,22.63
2019-04-23T18:00:10.003Z,22.51
2019-04-23T18:05:12.582Z,22.40
2019-04-23T18:10:24.676Z,22.21
2019-04-23T18:15:17.679Z,21.98
2019-04-23T18:18:02.307Z,21.97
2019-04-23T18:20:54.372Z,21.88
2019-04-23T18:23:15.070Z,21.84
2019-04-23T18:26:04.025Z,21.75
2019-04-23T18:28:42.279Z,21.66
2019-04-23T18:31:31.618Z,21.58
2019-04-23T18:36:26.143Z,21.38
2019-04-23T18:39:06.331Z,21.32
2019-04-23T18:41:43.045Z,21.27
2019-04-23T18:44:23.369Z,21.27
2019-04-23T18:49:28.106Z,21.14
2019-04-23T18:52:22.272Z,21.03
2019-04-23T18:54:28.529Z,20.97
2019-04-23T18:59:46.816Z,20.86
2019-04-23T19:02:45.381Z,20.70
2019-04-23T19:08:02.991Z,20.55
2019-04-23T19:10:52.254Z,20.49
2019-04-23T19:13:24.938Z,20.43
2019-04-23T19:15:50.973Z,20.48
2019-04-23T19:18:35.578Z,20.42
2019-04-23T19:21:08.921Z,20.26
2019-04-23T19:23:50.834Z,20.27
2019-04-23T19:26:15.806Z,20.18
2019-04-23T19:31:46.186Z,20.11
2019-04-23T19:36:54.758Z,19.95
2019-04-23T19:39:26.171Z,19.99
2019-04-23T19:42:00.597Z,19.84
2019-04-23T19:44:34.463Z,19.82
2019-04-23T19:47:19.376Z,19.62
2019-04-23T19:49:36.970Z,19.60
2019-04-23T19:52:07.972Z,19.47
2019-04-23T19:57:19.038Z,19.34
2019-04-23T20:02:45.229Z,19.18
2019-04-23T20:04:59.568Z,19.18
2019-04-23T20:07:43.722Z,19.10
2019-04-23T20:10:21.306Z,19.02
2019-04-23T20:12:40.041Z,18.93
2019-04-23T20:15:08.260Z,18.89
2019-04-23T20:17:53.055Z,18.78
2019-04-23T20:20:25.640Z,18.80
2019-04-23T20:26:05.598Z,18.60
2019-04-23T20:28:49.290Z,18.37
2019-04-23T20:31:57.238Z,18.04
2019-04-23T20:36:40.081Z,17.98
2019-04-23T20:39:17.274Z,17.95
2019-04-23T20:42:07.891Z,17.97
2019-04-23T20:47:08.585Z,18.00
2019-04-23T20:57:42.870Z,17.63
2019-04-23T21:03:04.968Z,17.58
2019-04-23T21:05:20.929Z,17.56
2019-04-23T21:18:15.666Z,17.24
2019-04-23T21:25:53.568Z,17.05
2019-04-23T21:28:40.085Z,17.01
2019-04-23T21:31:11.584Z,16.99
2019-04-23T21:33:59.322Z,16.91
2019-04-23T21:37:05.365Z,16.85
2019-04-23T21:40:04.698Z,16.79
2019-04-23T21:42:41.108Z,16.67
2019-04-23T21:45:09.008Z,16.54
2019-04-23T21:47:58.878Z,16.46
2019-04-23T21:50:25.718Z,16.42
2019-04-23T21:52:54.236Z,16.34
2019-04-23T21:55:32.828Z,16.20
2019-04-23T21:58:07.543Z,16.18
2019-04-23T22:00:38.950Z,16.20
2019-04-23T22:03:11.519Z,16.19
2019-04-23T22:05:58.286Z,16.19
2019-04-23T22:08:05.772Z,16.19
2019-04-23T22:10:57.315Z,16.23
2019-04-23T22:13:29.674Z,16.16
2019-04-23T22:16:10.796Z,16.12
2019-04-23T22:18:37.985Z,16.05
2019-04-23T22:21:05.074Z,15.96
2019-04-23T22:23:52.911Z,15.94
2019-04-23T22:26:16.261Z,15.88
2019-04-23T22:28:57.818Z,15.83
2019-04-23T22:31:31.761Z,15.78
2019-04-23T22:34:04.866Z,15.83
2019-04-23T22:36:28.613Z,15.91
2019-04-23T22:39:03.466Z,15.85
2019-04-23T22:41:41.654Z,15.85
2019-04-23T22:44:12.146Z,15.87
2019-04-23T22:46:53.702Z,15.84
2019-04-23T22:52:06.001Z,15.65
2019-04-23T22:54:31.771Z,15.58
2019-04-23T22:57:00.583Z,15.51
2019-04-23T22:59:51.809Z,15.46
2019-04-23T23:02:25.528Z,15.57
2019-04-23T23:05:07.454Z,15.44
2019-04-23T23:07:41.506Z,15.13
2019-04-23T23:12:53.244Z,15.02
2019-04-23T23:15:14.862Z,14.92
2019-04-23T23:17:58.439Z,14.91
2019-04-23T23:23:05.670Z,14.83
2019-04-23T23:28:22.695Z,14.72
2019-04-23T23:30:51.290Z,14.54
2019-04-23T23:33:17.253Z,14.57
2019-04-23T23:35:54.828Z,14.47
2019-04-23T23:38:27.430Z,14.40
2019-04-23T23:41:07.720Z,14.36
2019-04-23T23:46:17.293Z,14.36
2019-04-23T23:48:35.977Z,14.30
2019-04-23T23:51:21.824Z,14.26
2019-04-23T23:56:15.803Z,14.31
